createdAt,value
2023-02-22T00:02:10.688Z,8.73
2023-02-22T00:04:40.081Z,8.40
2023-02-22T00:07:08.095Z,8.73
2023-02-22T00:09:37.754Z,8.63
2023-02-22T00:12:05.468Z,8.27
2023-02-22T00:14:33.686Z,7.53
2023-02-22T00:17:01.580Z,7.93
2023-02-22T00:19:30.980Z,6.83
2023-02-22T00:21:59.170Z,6.17
2023-02-22T00:24:27.050Z,6.20
2023-02-22T00:26:59.885Z,5.43
2023-02-22T00:29:28.648Z,6.07
2023-02-22T00:31:57.837Z,6.30
2023-02-22T00:34:25.701Z,5.80
2023-02-22T00:36:53.469Z,5.47
2023-02-22T00:39:21.671Z,5.20
2023-02-22T00:41:49.876Z,4.80
2023-02-22T00:44:19.187Z,4.60
2023-02-22T00:46:46.872Z,4.37
2023-02-22T00:49:15.272Z,4.73
2023-02-22T00:51:43.004Z,5.20
2023-02-22T00:54:11.100Z,4.53
2023-02-22T00:56:39.024Z,4.53
2023-02-22T00:59:07.074Z,5.00
2023-02-22T01:01:36.557Z,5.20
2023-02-22T01:04:04.660Z,5.67
2023-02-22T01:06:33.059Z,5.30
2023-02-22T01:09:02.137Z,4.13
2023-02-22T01:11:30.000Z,5.23
2023-02-22T01:13:58.103Z,6.00
2023-02-22T01:16:26.025Z,6.20
2023-02-22T01:18:55.780Z,6.27
2023-02-22T01:21:23.662Z,5.27
2023-02-22T01:23:52.388Z,6.83
2023-02-22T01:26:20.237Z,6.37
2023-02-22T01:28:48.048Z,7.43
2023-02-22T01:31:16.354Z,7.63
2023-02-22T01:33:45.462Z,8.10
2023-02-22T01:36:14.965Z,8.27
2023-02-22T01:38:42.968Z,8.90
2023-02-22T01:41:10.844Z,11.27
2023-02-22T01:43:38.644Z,10.80
2023-02-22T01:46:08.389Z,11.17
2023-02-22T01:48:38.712Z,10.70
2023-02-22T01:51:11.146Z,10.17
2023-02-22T01:53:42.595Z,8.93
2023-02-22T01:56:10.980Z,9.67
2023-02-22T01:58:40.081Z,9.53
2023-02-22T02:01:08.727Z,8.57
2023-02-22T02:03:37.665Z,7.33
2023-02-22T02:06:07.479Z,8.00
2023-02-22T02:08:37.757Z,7.77
2023-02-22T02:11:09.203Z,8.13
2023-02-22T02:13:37.860Z,8.53
2023-02-22T02:16:07.234Z,8.87
2023-02-22T02:18:34.880Z,9.37
2023-02-22T02:21:33.408Z,9.83
2023-02-22T02:24:13.220Z,9.83
2023-02-22T02:26:57.409Z,9.70
2023-02-22T02:29:42.611Z,9.37
2023-02-22T02:32:28.938Z,9.07
2023-02-22T02:35:00.145Z,10.10
2023-02-22T02:37:34.106Z,11.07
2023-02-22T02:40:08.102Z,10.13
2023-02-22T02:42:38.305Z,11.23
2023-02-22T02:45:09.667Z,10.53
2023-02-22T02:47:39.563Z,9.50
2023-02-22T02:50:10.544Z,10.47
2023-02-22T02:52:39.865Z,10.37
2023-02-22T02:55:08.114Z,10.63
2023-02-22T02:57:35.819Z,11.27
2023-02-22T03:00:08.453Z,10.07
2023-02-22T03:02:39.950Z,10.47
2023-02-22T03:05:18.656Z,10.60
2023-02-22T03:07:51.360Z,9.90
2023-02-22T03:10:25.848Z,8.83
2023-02-22T03:12:59.851Z,4.50
2023-02-22T03:15:40.368Z,5.20
2023-02-22T03:18:10.650Z,6.07
2023-02-22T03:20:44.121Z,6.77
2023-02-22T03:23:14.789Z,7.60
2023-02-22T03:25:45.153Z,8.07
2023-02-22T03:28:14.129Z,6.63
2023-02-22T03:30:43.548Z,5.93
2023-02-22T03:33:14.993Z,6.23
2023-02-22T03:35:48.269Z,6.53
2023-02-22T03:38:17.766Z,7.00
2023-02-22T03:40:47.698Z,5.67
2023-02-22T03:43:17.212Z,4.30
2023-02-22T03:45:46.251Z,5.73
2023-02-22T03:48:17.880Z,6.47
2023-02-22T03:50:47.332Z,6.23
2023-02-22T03:53:14.976Z,4.57
2023-02-22T03:55:42.656Z,3.93
2023-02-22T03:58:12.332Z,4.97
2023-02-22T04:00:40.110Z,5.60
2023-02-22T04:03:08.175Z,8.30
2023-02-22T04:05:35.866Z,9.00
2023-02-22T04:08:07.394Z,8.93
2023-02-22T04:10:35.922Z,8.83
2023-02-22T04:13:03.887Z,9.10
2023-02-22T04:15:31.509Z,8.57
2023-02-22T04:17:59.193Z,10.00
2023-02-22T04:20:27.193Z,9.13
2023-02-22T04:22:54.876Z,8.57
2023-02-22T04:25:25.120Z,9.70
2023-02-22T04:27:53.241Z,8.70
2023-02-22T04:30:21.129Z,10.67
2023-02-22T04:32:48.938Z,9.03
2023-02-22T04:35:17.040Z,11.40
2023-02-22T04:37:46.062Z,12.10
2023-02-22T04:40:14.240Z,13.87
2023-02-22T04:42:43.424Z,13.30
2023-02-22T04:45:11.315Z,15.00
2023-02-22T04:47:39.481Z,13.93
2023-02-22T04:50:08.510Z,12.50
2023-02-22T04:52:36.440Z,12.80
2023-02-22T04:55:04.944Z,13.90
2023-02-22T04:57:32.615Z,11.77
2023-02-22T05:00:01.917Z,12.63
2023-02-22T05:02:29.720Z,11.57
2023-02-22T05:04:57.549Z,13.47
2023-02-22T05:07:25.549Z,16.07
2023-02-22T05:09:53.287Z,16.80
2023-02-22T05:12:21.586Z,13.90
2023-02-22T05:14:49.271Z,13.13
2023-02-22T05:17:18.514Z,15.00
2023-02-22T05:19:47.381Z,22.53
2023-02-22T05:22:15.302Z,19.23
2023-02-22T05:24:44.046Z,16.50
2023-02-22T05:27:12.074Z,20.03
2023-02-22T05:29:39.808Z,14.70
2023-02-22T05:32:07.908Z,18.33
2023-02-22T05:34:37.192Z,17.63
2023-02-22T05:37:06.465Z,15.03
2023-02-22T05:39:34.326Z,17.30
2023-02-22T05:42:02.024Z,13.43
2023-02-22T05:44:29.719Z,14.60
2023-02-22T05:46:57.680Z,14.87
2023-02-22T05:49:25.395Z,13.93
2023-02-22T05:51:55.939Z,15.23
2023-02-22T05:54:23.715Z,13.30
2023-02-22T05:56:51.516Z,13.50
2023-02-22T05:59:19.399Z,13.43
2023-02-22T06:01:47.151Z,12.83
2023-02-22T06:04:14.798Z,14.00
2023-02-22T06:06:42.662Z,14.83
2023-02-22T06:09:12.121Z,13.33
2023-02-22T06:11:40.047Z,14.20
2023-02-22T06:14:08.388Z,13.90
2023-02-22T06:16:36.144Z,10.97
2023-02-22T06:19:04.066Z,11.67
2023-02-22T06:21:31.815Z,12.03
2023-02-22T06:23:59.772Z,8.63
2023-02-22T06:26:29.296Z,11.37
2023-02-22T06:28:57.055Z,7.87
2023-02-22T06:31:24.813Z,6.77
2023-02-22T06:33:52.604Z,8.43
2023-02-22T06:36:20.332Z,6.43
2023-02-22T06:38:48.624Z,6.90
2023-02-22T06:41:17.187Z,6.23
2023-02-22T06:43:48.531Z,8.40
2023-02-22T06:46:16.328Z,7.87
2023-02-22T06:48:46.802Z,8.60
2023-02-22T06:51:14.831Z,11.63
2023-02-22T06:53:42.774Z,10.87
2023-02-22T06:56:10.950Z,11.93
2023-02-22T06:58:38.943Z,11.20
2023-02-22T07:01:08.818Z,11.47
2023-02-22T07:03:37.387Z,10.80
2023-02-22T07:06:08.886Z,8.87
2023-02-22T07:08:36.582Z,9.47
2023-02-22T07:11:11.135Z,9.50
2023-02-22T07:13:39.175Z,9.33
2023-02-22T07:16:08.449Z,8.80
2023-02-22T07:18:36.126Z,8.50
2023-02-22T07:21:03.840Z,11.10
2023-02-22T07:23:31.684Z,11.73
2023-02-22T07:26:01.116Z,13.10
2023-02-22T07:28:29.089Z,12.13
2023-02-22T07:30:56.892Z,11.90
2023-02-22T07:33:26.964Z,12.57
2023-02-22T07:35:54.719Z,12.17
2023-02-22T07:38:22.691Z,12.20
2023-02-22T07:40:50.524Z,9.97
2023-02-22T07:43:19.718Z,13.17
2023-02-22T07:45:50.958Z,9.93
2023-02-22T07:48:19.599Z,4.63
2023-02-22T07:50:49.176Z,9.63
2023-02-22T07:53:18.317Z,7.13
2023-02-22T07:55:46.079Z,4.80
2023-02-22T07:58:16.256Z,5.97
2023-02-22T08:00:44.418Z,5.90
2023-02-22T08:03:14.696Z,7.30
2023-02-22T08:05:43.445Z,8.10
2023-02-22T08:08:12.543Z,8.53
2023-02-22T08:10:40.359Z,9.77
2023-02-22T08:13:08.282Z,9.47
2023-02-22T08:15:36.808Z,10.20
2023-02-22T08:18:05.628Z,11.07
2023-02-22T08:20:33.274Z,12.13
2023-02-22T08:23:02.620Z,13.53
2023-02-22T08:25:32.126Z,13.87
2023-02-22T08:28:01.515Z,14.20
2023-02-22T08:30:30.241Z,12.60
2023-02-22T08:32:58.542Z,16.03
2023-02-22T08:35:27.756Z,17.13
2023-02-22T08:37:56.796Z,16.67
2023-02-22T08:40:27.871Z,18.23
2023-02-22T08:42:57.206Z,17.10
2023-02-22T08:45:25.330Z,17.53
2023-02-22T08:47:55.508Z,16.97
2023-02-22T08:50:26.866Z,15.77
2023-02-22T08:52:55.649Z,16.87
2023-02-22T08:55:24.014Z,17.17
2023-02-22T08:57:51.826Z,16.07
2023-02-22T09:00:24.808Z,14.77
2023-02-22T09:02:52.654Z,18.67
2023-02-22T09:05:20.478Z,15.43
2023-02-22T09:07:48.686Z,14.90
2023-02-22T09:10:18.566Z,14.60
2023-02-22T09:12:47.231Z,14.13
2023-02-22T09:15:16.518Z,13.93
2023-02-22T09:17:45.933Z,12.93
2023-02-22T09:20:14.342Z,15.03
2023-02-22T09:22:42.584Z,13.60
2023-02-22T09:25:16.583Z,12.63
2023-02-22T09:27:45.241Z,13.23
2023-02-22T09:30:17.923Z,11.30
2023-02-22T09:32:47.257Z,10.73
2023-02-22T09:35:15.468Z,9.63
2023-02-22T09:37:45.105Z,11.53
2023-02-22T09:40:17.822Z,9.07
2023-02-22T09:42:50.007Z,8.80
2023-02-22T09:45:21.103Z,6.63
2023-02-22T09:47:51.750Z,7.90
2023-02-22T09:50:22.840Z,6.70
2023-02-22T09:52:55.201Z,6.73
2023-02-22T09:55:29.483Z,6.43
2023-02-22T09:57:58.800Z,5.20
2023-02-22T10:00:29.743Z,4.07
2023-02-22T10:03:07.027Z,3.83
2023-02-22T10:05:37.710Z,4.00
2023-02-22T10:08:07.276Z,3.70
2023-02-22T10:10:36.823Z,5.07
2023-02-22T10:13:07.462Z,4.57
2023-02-22T10:15:43.227Z,5.90
2023-02-22T10:18:32.816Z,9.03
2023-02-22T10:21:07.737Z,7.27
2023-02-22T10:23:37.864Z,3.77
2023-02-22T10:26:10.511Z,3.93
2023-02-22T10:28:40.330Z,3.30
2023-02-22T10:31:09.222Z,4.00
2023-02-22T10:33:39.533Z,3.77
2023-02-22T10:36:16.415Z,4.27
2023-02-22T10:38:46.599Z,3.57
2023-02-22T10:41:20.347Z,4.37
2023-02-22T10:43:48.107Z,4.57
2023-02-22T10:46:18.357Z,4.33
2023-02-22T10:48:47.758Z,3.77
2023-02-22T10:51:17.364Z,3.70
2023-02-22T10:53:47.782Z,3.33
2023-02-22T10:56:18.966Z,2.97
2023-02-22T10:58:49.136Z,3.33
2023-02-22T11:01:27.969Z,3.10
2023-02-22T11:04:00.216Z,3.47
2023-02-22T11:06:29.659Z,4.37
2023-02-22T11:09:10.515Z,4.33
2023-02-22T11:11:38.919Z,4.27
2023-02-22T11:14:07.621Z,4.13
2023-02-22T11:16:45.376Z,3.17
2023-02-22T11:19:17.773Z,4.20
2023-02-22T11:21:54.187Z,6.00
2023-02-22T11:24:24.968Z,3.67
2023-02-22T11:26:55.012Z,3.27
2023-02-22T11:29:26.158Z,2.67
2023-02-22T11:31:54.272Z,3.03
2023-02-22T11:34:31.241Z,2.93
2023-02-22T11:37:16.780Z,2.77
2023-02-22T11:39:45.387Z,2.67
2023-02-22T11:42:21.743Z,2.60
2023-02-22T11:44:49.525Z,2.90
2023-02-22T11:47:17.268Z,2.80
2023-02-22T11:49:47.891Z,4.17
2023-02-22T11:52:24.291Z,3.30
2023-02-22T11:55:11.281Z,2.73
2023-02-22T11:57:49.482Z,5.00
2023-02-22T12:00:24.869Z,3.23
2023-02-22T12:03:01.607Z,2.53
2023-02-22T12:05:37.352Z,2.70
2023-02-22T12:08:19.862Z,2.87
2023-02-22T12:10:55.396Z,2.43
2023-02-22T12:13:28.329Z,3.40
2023-02-22T12:16:01.614Z,3.60
2023-02-22T12:18:35.493Z,3.30
2023-02-22T12:21:05.870Z,3.07
2023-02-22T12:23:45.005Z,2.60
2023-02-22T12:26:17.418Z,2.57
2023-02-22T12:28:47.821Z,2.90
2023-02-22T12:31:20.336Z,2.93
2023-02-22T12:33:52.940Z,2.30
2023-02-22T12:36:28.213Z,2.47
2023-02-22T12:39:00.401Z,2.07
2023-02-22T12:41:31.786Z,2.03
2023-02-22T12:44:04.043Z,2.03
2023-02-22T12:46:35.750Z,1.90
2023-02-22T12:49:07.082Z,1.77
2023-02-22T12:51:38.554Z,1.93
2023-02-22T12:54:12.126Z,2.20
2023-02-22T12:56:43.154Z,2.40
2023-02-22T12:59:14.344Z,2.03
2023-02-22T13:01:45.610Z,2.83
2023-02-22T13:04:20.972Z,2.20
2023-02-22T13:07:04.035Z,2.30
2023-02-22T13:09:47.117Z,1.83
2023-02-22T13:12:19.285Z,2.70
2023-02-22T13:14:53.103Z,2.13
2023-02-22T13:17:25.742Z,3.00
2023-02-22T13:19:56.110Z,1.83
2023-02-22T13:22:28.172Z,1.80
2023-02-22T13:25:01.502Z,2.17
2023-02-22T13:27:34.374Z,3.03
2023-02-22T13:30:02.691Z,3.13
2023-02-22T13:32:36.585Z,2.33
2023-02-22T13:35:21.684Z,3.23
2023-02-22T13:37:57.426Z,3.03
2023-02-22T13:40:45.827Z,3.13
2023-02-22T13:43:27.046Z,2.87
2023-02-22T13:46:18.085Z,2.97
2023-02-22T13:49:16.158Z,2.27
2023-02-22T13:51:51.275Z,2.43
2023-02-22T13:54:21.625Z,2.47
2023-02-22T13:56:50.784Z,2.47
2023-02-22T13:59:35.716Z,2.70
2023-02-22T14:02:04.898Z,2.43
2023-02-22T14:04:38.289Z,2.53
2023-02-22T14:07:26.778Z,2.43
2023-02-22T14:09:56.251Z,2.77
2023-02-22T14:12:59.739Z,2.60
2023-02-22T14:15:30.931Z,2.73
2023-02-22T14:18:02.680Z,2.17
2023-02-22T14:20:32.903Z,2.20
2023-02-22T14:23:15.477Z,1.93
2023-02-22T14:25:43.617Z,2.80
2023-02-22T14:28:31.623Z,1.87
2023-02-22T14:31:08.081Z,2.80
2023-02-22T14:33:53.469Z,2.37
2023-02-22T14:36:22.568Z,2.40
2023-02-22T14:38:52.645Z,2.73
2023-02-22T14:41:20.812Z,2.93
2023-02-22T14:43:50.764Z,2.67
2023-02-22T14:46:24.132Z,2.40
2023-02-22T14:48:53.090Z,2.57
2023-02-22T14:51:24.566Z,2.67
2023-02-22T14:53:55.795Z,2.40
2023-02-22T14:56:25.641Z,2.27
2023-02-22T14:58:55.606Z,2.27
2023-02-22T15:01:33.985Z,2.17
2023-02-22T15:04:18.171Z,2.23
2023-02-22T15:06:46.795Z,2.00
2023-02-22T15:09:25.107Z,2.00
2023-02-22T15:11:55.840Z,2.60
2023-02-22T15:14:26.840Z,2.10
2023-02-22T15:16:57.804Z,2.00
2023-02-22T15:19:27.253Z,2.47
2023-02-22T15:21:55.626Z,2.13
2023-02-22T15:24:26.159Z,2.70
2023-02-22T15:27:01.975Z,2.80
2023-02-22T15:29:36.182Z,2.83
2023-02-22T15:32:19.458Z,3.07
2023-02-22T15:34:47.379Z,3.30
2023-02-22T15:37:25.239Z,4.33
2023-02-22T15:39:59.740Z,4.80
2023-02-22T15:42:30.608Z,6.50
2023-02-22T15:44:58.618Z,4.37
2023-02-22T15:47:30.194Z,9.07
2023-02-22T15:50:21.395Z,6.07
2023-02-22T15:52:53.379Z,7.90
2023-02-22T15:55:24.794Z,7.70
2023-02-22T15:57:53.726Z,5.90
2023-02-22T16:00:23.624Z,6.20
2023-02-22T16:02:52.999Z,5.40
2023-02-22T16:05:21.329Z,4.90
2023-02-22T16:07:51.059Z,5.23
2023-02-22T16:10:21.806Z,6.10
2023-02-22T16:12:50.985Z,5.10
2023-02-22T16:15:19.996Z,5.33
2023-02-22T16:18:01.357Z,5.60
2023-02-22T16:20:43.360Z,5.87
2023-02-22T16:23:24.283Z,5.13
2023-02-22T16:26:05.795Z,5.83
2023-02-22T16:28:35.895Z,5.50
2023-02-22T16:31:04.740Z,5.43
2023-02-22T16:33:34.059Z,5.60
2023-02-22T16:36:08.232Z,5.70
2023-02-22T16:38:38.581Z,6.40
2023-02-22T16:41:06.919Z,5.50
2023-02-22T16:43:35.578Z,5.37
2023-02-22T16:46:05.180Z,6.40
2023-02-22T16:48:33.962Z,8.23
2023-02-22T16:51:03.261Z,12.00
2023-02-22T16:53:33.164Z,8.53
2023-02-22T16:56:03.525Z,7.07
2023-02-22T16:58:34.077Z,6.70
2023-02-22T17:01:01.919Z,7.23
2023-02-22T17:03:29.760Z,6.57
2023-02-22T17:05:57.883Z,7.53
2023-02-22T17:08:25.954Z,9.73
2023-02-22T17:10:56.801Z,7.30
2023-02-22T17:13:27.105Z,6.87
2023-02-22T17:15:55.593Z,6.67
2023-02-22T17:18:23.911Z,6.87
2023-02-22T17:20:53.089Z,6.73
2023-02-22T17:23:21.251Z,7.13
2023-02-22T17:25:53.610Z,6.60
2023-02-22T17:28:23.711Z,7.30
2023-02-22T17:30:51.911Z,6.53
2023-02-22T17:33:20.614Z,6.00
2023-02-22T17:35:48.631Z,6.60
2023-02-22T17:38:18.659Z,7.20
2023-02-22T17:40:48.665Z,9.47
2023-02-22T17:43:16.717Z,10.10
2023-02-22T17:45:46.416Z,9.40
2023-02-22T17:48:14.836Z,8.87
2023-02-22T17:50:44.057Z,9.20
2023-02-22T17:53:12.357Z,10.10
2023-02-22T17:55:41.034Z,8.83
2023-02-22T17:58:14.949Z,9.10
2023-02-22T18:00:44.604Z,9.03
2023-02-22T18:03:16.347Z,8.97
2023-02-22T18:05:46.243Z,20.33
2023-02-22T18:08:14.959Z,25.70
2023-02-22T18:10:46.390Z,22.53
2023-02-22T18:13:16.988Z,21.47
2023-02-22T18:15:45.582Z,21.57
2023-02-22T18:18:15.005Z,15.03
2023-02-22T18:20:44.892Z,18.10
2023-02-22T18:23:14.567Z,14.87
2023-02-22T18:26:03.913Z,17.33
2023-02-22T18:28:36.721Z,15.97
2023-02-22T18:31:10.091Z,20.00
2023-02-22T18:33:39.625Z,18.37
2023-02-22T18:36:11.946Z,19.30
2023-02-22T18:38:43.013Z,18.13
2023-02-22T18:41:11.441Z,16.53
2023-02-22T18:43:39.175Z,17.10
2023-02-22T18:46:07.900Z,24.33
2023-02-22T18:48:35.957Z,18.30
2023-02-22T18:51:06.742Z,13.77
2023-02-22T18:53:34.831Z,18.17
2023-02-22T18:56:05.142Z,12.07
2023-02-22T18:58:33.800Z,13.07
2023-02-22T19:01:01.953Z,10.77
2023-02-22T19:03:29.682Z,11.23
2023-02-22T19:06:02.012Z,11.57
2023-02-22T19:08:32.636Z,10.47
2023-02-22T19:11:03.863Z,12.40
2023-02-22T19:13:31.990Z,10.70
2023-02-22T19:16:01.150Z,11.23
2023-02-22T19:18:28.940Z,11.03
2023-02-22T19:20:56.955Z,10.67
2023-02-22T19:23:24.792Z,11.27
2023-02-22T19:25:54.027Z,9.97
2023-02-22T19:28:28.242Z,9.63
2023-02-22T19:30:56.014Z,9.87
2023-02-22T19:33:26.204Z,10.57
2023-02-22T19:35:54.005Z,9.07
2023-02-22T19:38:21.697Z,10.60
2023-02-22T19:40:50.271Z,10.97
2023-02-22T19:43:19.999Z,8.43
2023-02-22T19:45:47.824Z,10.53
2023-02-22T19:48:15.963Z,9.80
2023-02-22T19:50:49.431Z,9.63
2023-02-22T19:53:17.255Z,9.93
2023-02-22T19:55:45.062Z,10.43
2023-02-22T19:58:15.543Z,10.27
2023-02-22T20:00:45.062Z,11.30
2023-02-22T20:03:15.730Z,12.40
2023-02-22T20:05:43.688Z,14.13
2023-02-22T20:08:11.868Z,13.53
2023-02-22T20:10:40.051Z,13.60
2023-02-22T20:13:08.427Z,13.27
2023-02-22T20:15:36.179Z,14.30
2023-02-22T20:18:05.432Z,14.13
2023-02-22T20:20:33.660Z,17.63
2023-02-22T20:23:01.651Z,16.50
2023-02-22T20:25:29.467Z,17.60
2023-02-22T20:27:57.526Z,17.43
2023-02-22T20:30:25.392Z,16.50
2023-02-22T20:32:54.011Z,14.57
2023-02-22T20:35:24.824Z,17.73
2023-02-22T20:37:53.708Z,12.07
2023-02-22T20:40:22.032Z,15.63
2023-02-22T20:42:49.792Z,14.13
2023-02-22T20:45:20.956Z,13.10
2023-02-22T20:47:49.120Z,13.50
2023-02-22T20:50:17.000Z,15.30
2023-02-22T20:52:46.554Z,13.73
2023-02-22T20:55:15.874Z,16.37
2023-02-22T20:57:43.847Z,13.13
2023-02-22T21:00:12.424Z,14.50
2023-02-22T21:02:40.173Z,12.37
2023-02-22T21:05:08.234Z,12.77
2023-02-22T21:07:35.862Z,15.50
2023-02-22T21:10:08.518Z,10.83
2023-02-22T21:12:37.617Z,12.37
2023-02-22T21:15:07.152Z,11.70
2023-02-22T21:17:36.806Z,12.73
2023-02-22T21:20:12.106Z,11.50
2023-02-22T21:22:39.980Z,11.83
2023-02-22T21:25:10.759Z,10.47
2023-02-22T21:27:38.939Z,13.90
2023-02-22T21:30:07.312Z,9.87
2023-02-22T21:32:35.596Z,8.43
2023-02-22T21:35:03.485Z,8.53
2023-02-22T21:37:31.302Z,7.50
2023-02-22T21:39:59.216Z,10.27
2023-02-22T21:42:28.461Z,7.40
2023-02-22T21:44:56.426Z,9.40
2023-02-22T21:47:24.571Z,16.90
2023-02-22T21:49:52.249Z,14.90
2023-02-22T21:52:20.017Z,11.47
2023-02-22T21:54:48.149Z,9.87
2023-02-22T21:57:16.264Z,15.03
2023-02-22T21:59:45.617Z,16.37
2023-02-22T22:02:15.680Z,9.23
2023-02-22T22:04:43.555Z,7.73
2023-02-22T22:07:11.499Z,6.50
2023-02-22T22:09:41.423Z,6.50
2023-02-22T22:12:10.352Z,6.90
2023-02-22T22:14:41.088Z,6.30
2023-02-22T22:17:10.323Z,6.60
2023-02-22T22:19:40.640Z,8.53
2023-02-22T22:22:09.005Z,8.47
2023-02-22T22:24:36.917Z,6.57
2023-02-22T22:27:06.580Z,6.67
2023-02-22T22:29:35.247Z,5.67
2023-02-22T22:32:03.429Z,5.37
2023-02-22T22:34:34.503Z,6.13
2023-02-22T22:37:02.173Z,5.90
2023-02-22T22:39:30.945Z,7.03
2023-02-22T22:41:58.588Z,6.43
2023-02-22T22:44:32.771Z,6.20
2023-02-22T22:47:00.680Z,6.20
2023-02-22T22:49:31.395Z,6.20
2023-02-22T22:52:00.732Z,6.23
2023-02-22T22:54:28.939Z,6.80
2023-02-22T22:56:56.773Z,5.50
2023-02-22T22:59:24.567Z,5.50
2023-02-22T23:01:52.417Z,6.30
2023-02-22T23:04:21.752Z,6.37
2023-02-22T23:06:50.788Z,6.37
2023-02-22T23:09:22.578Z,6.50
2023-02-22T23:11:51.181Z,5.67
2023-02-22T23:14:19.987Z,6.57
2023-02-22T23:16:47.900Z,6.17
2023-02-22T23:19:15.832Z,6.23
2023-02-22T23:21:44.354Z,6.33
2023-02-22T23:24:15.314Z,6.13
2023-02-22T23:26:48.734Z,6.17
2023-02-22T23:29:17.026Z,6.60
2023-02-22T23:31:48.334Z,6.73
2023-02-22T23:34:16.873Z,7.60
2023-02-22T23:36:45.231Z,6.80
2023-02-22T23:39:14.188Z,7.63
2023-02-22T23:41:42.565Z,8.13
2023-02-22T23:44:17.736Z,7.10
2023-02-22T23:46:48.233Z,6.57
2023-02-22T23:49:20.831Z,6.83
2023-02-22T23:51:49.217Z,6.23
2023-02-22T23:54:19.280Z,5.80
2023-02-22T23:56:56.620Z,5.93
2023-02-22T23:59:27.764Z,6.10
